createdAt,value
2022-10-01T00:00:29.846Z,158.02
2022-10-01T00:01:29.914Z,157.28
2022-10-01T00:02:30.074Z,157.13
2022-10-01T00:03:29.815Z,156.54
2022-10-01T00:04:29.807Z,155.67
2022-10-01T00:05:29.803Z,156.10
2022-10-01T00:06:29.785Z,155.09
2022-10-01T00:07:29.781Z,155.09
2022-10-01T00:08:29.940Z,156.54
2022-10-01T00:09:29.759Z,156.40
2022-10-01T00:10:29.737Z,155.23
2022-10-01T00:11:29.750Z,156.40
2022-10-01T00:12:29.728Z,156.69
2022-10-01T00:13:29.706Z,155.52
2022-10-01T00:14:29.879Z,155.81
2022-10-01T00:15:29.687Z,155.81
2022-10-01T00:16:29.727Z,155.38
2022-10-01T00:17:29.677Z,156.69
2022-10-01T00:18:29.673Z,155.67
2022-10-01T00:19:29.645Z,156.10
2022-10-01T00:20:29.790Z,156.69
2022-10-01T00:21:29.629Z,156.25
2022-10-01T00:22:29.615Z,157.58
2022-10-01T00:23:29.603Z,156.10
2022-10-01T00:24:29.598Z,157.28
2022-10-01T00:25:29.585Z,155.23
2022-10-01T00:26:29.723Z,156.84
2022-10-01T00:27:29.563Z,156.54
2022-10-01T00:28:29.555Z,156.69
2022-10-01T00:29:29.542Z,156.10
2022-10-01T00:30:29.529Z,157.28
2022-10-01T00:31:29.678Z,157.58
2022-10-01T00:32:29.662Z,157.58
2022-10-01T00:33:29.498Z,158.18
2022-10-01T00:34:29.484Z,156.69
2022-10-01T00:35:29.477Z,157.28
2022-10-01T00:36:29.455Z,157.43
2022-10-01T00:37:29.458Z,157.43
2022-10-01T00:38:29.604Z,157.58
2022-10-01T00:39:29.449Z,157.73
2022-10-01T00:40:29.413Z,157.88
2022-10-01T00:41:29.414Z,158.93
2022-10-01T00:42:29.394Z,159.08
2022-10-01T00:43:29.392Z,158.48
2022-10-01T00:44:29.620Z,161.08
2022-10-01T00:45:29.395Z,159.54
2022-10-01T00:46:29.360Z,160.30
2022-10-01T00:47:29.357Z,160.76
2022-10-01T00:48:29.324Z,161.70
2022-10-01T00:49:29.328Z,161.23
2022-10-01T00:50:29.948Z,161.08
2022-10-01T00:51:29.302Z,160.15
2022-10-01T00:52:29.299Z,160.76
2022-10-01T00:53:29.288Z,160.76
2022-10-01T00:54:29.268Z,161.54
2022-10-01T00:55:29.256Z,162.80
2022-10-01T00:56:29.416Z,162.01
2022-10-01T00:57:29.234Z,162.65
2022-10-01T00:58:29.247Z,163.92
2022-10-01T00:59:29.221Z,163.12
2022-10-01T01:00:29.212Z,165.71
2022-10-01T01:01:29.247Z,164.25
2022-10-01T01:02:29.422Z,165.06
2022-10-01T01:03:29.172Z,165.88
2022-10-01T01:04:29.175Z,165.71
2022-10-01T01:05:29.162Z,166.38
2022-10-01T01:06:29.140Z,167.71
2022-10-01T01:07:29.131Z,167.04
2022-10-01T01:08:29.365Z,168.39
2022-10-01T01:09:29.123Z,167.21
2022-10-01T01:10:29.093Z,169.24
2022-10-01T01:11:29.088Z,169.42
2022-10-01T01:12:29.073Z,169.76
2022-10-01T01:13:29.105Z,171.51
2022-10-01T01:14:29.303Z,170.63
2022-10-01T01:15:29.058Z,171.15
2022-10-01T01:16:29.061Z,173.29
2022-10-01T01:17:29.021Z,172.75
2022-10-01T01:18:29.009Z,174.01
2022-10-01T01:19:29.002Z,173.83
2022-10-01T01:20:29.140Z,174.55
2022-10-01T01:21:29.000Z,174.92
2022-10-01T01:22:28.961Z,174.37
2022-10-01T01:23:28.955Z,174.74
2022-10-01T01:24:28.982Z,175.47
2022-10-01T01:25:28.938Z,175.29
2022-10-01T01:26:29.089Z,176.21
2022-10-01T01:27:28.914Z,176.21
2022-10-01T01:28:28.953Z,175.66
2022-10-01T01:29:28.886Z,175.47
2022-10-01T01:30:28.881Z,174.92
2022-10-01T01:31:28.899Z,176.40
2022-10-01T01:32:29.236Z,176.96
2022-10-01T01:33:28.851Z,176.40
2022-10-01T01:34:28.830Z,175.47
2022-10-01T01:35:28.840Z,174.37
2022-10-01T01:36:28.811Z,175.84
2022-10-01T01:37:28.805Z,175.84
2022-10-01T01:38:28.954Z,175.84
2022-10-01T01:39:28.800Z,175.47
2022-10-01T01:40:28.768Z,175.66
2022-10-01T01:41:28.761Z,176.21
2022-10-01T01:42:28.751Z,178.09
2022-10-01T01:43:28.744Z,182.18
2022-10-01T01:44:28.939Z,186.87
2022-10-01T01:45:28.822Z,186.25
2022-10-01T01:46:28.709Z,191.02
2022-10-01T01:47:28.700Z,192.26
2022-10-01T01:48:28.680Z,193.96
2022-10-01T01:49:28.729Z,195.81
2022-10-01T01:50:28.825Z,197.82
2022-10-01T01:51:28.650Z,200.11
2022-10-01T01:52:28.681Z,200.11
2022-10-01T01:53:28.642Z,201.34
2022-10-01T01:54:28.619Z,200.85
2022-10-01T01:55:28.617Z,206.02
2022-10-01T01:56:28.899Z,206.41
2022-10-01T01:57:28.590Z,207.32
2022-10-01T01:58:28.581Z,208.90
2022-10-01T01:59:28.564Z,212.15
2022-10-01T02:00:28.550Z,213.11
2022-10-01T02:01:28.632Z,215.35
2022-10-01T02:02:28.828Z,217.35
2022-10-01T02:03:28.530Z,219.82
2022-10-01T02:04:28.528Z,221.75
2022-10-01T02:05:28.500Z,223.72
2022-10-01T02:06:28.493Z,225.41
2022-10-01T02:07:28.481Z,229.19
2022-10-01T02:08:28.678Z,230.96
2022-10-01T02:09:28.458Z,234.09
2022-10-01T02:10:28.474Z,237.31
2022-10-01T02:11:28.441Z,239.91
2022-10-01T02:12:28.454Z,242.04
2022-10-01T02:13:28.418Z,244.93
2022-10-01T02:14:28.579Z,246.21
2022-10-01T02:15:28.388Z,247.51
2022-10-01T02:16:28.501Z,248.64
2022-10-01T02:17:28.388Z,249.20
2022-10-01T02:18:28.395Z,249.96
2022-10-01T02:19:28.340Z,250.54
2022-10-01T02:20:28.522Z,251.30
2022-10-01T02:21:28.335Z,252.85
2022-10-01T02:22:28.314Z,253.24
2022-10-01T02:23:28.298Z,254.62
2022-10-01T02:24:28.299Z,255.21
2022-10-01T02:25:28.283Z,257.21
2022-10-01T02:26:28.446Z,260.07
2022-10-01T02:27:28.258Z,259.25
2022-10-01T02:28:28.278Z,259.86
2022-10-01T02:29:28.238Z,261.10
2022-10-01T02:30:35.737Z,262.15
2022-10-01T02:31:28.256Z,262.57
2022-10-01T02:32:28.440Z,262.57
2022-10-01T02:33:28.193Z,264.90
2022-10-01T02:34:28.193Z,266.62
2022-10-01T02:35:28.180Z,267.27
2022-10-01T02:36:28.174Z,265.76
2022-10-01T02:37:28.162Z,267.71
2022-10-01T02:38:29.041Z,265.97
2022-10-01T02:39:28.136Z,268.80
2022-10-01T02:40:28.132Z,271.02
2022-10-01T02:41:28.123Z,269.69
2022-10-01T02:42:28.105Z,270.13
2022-10-01T02:43:28.094Z,272.83
2022-10-01T02:44:28.420Z,270.80
2022-10-01T02:46:21.624Z,298.38
2022-10-01T02:47:21.507Z,288.92
2022-10-01T02:48:21.576Z,284.66
2022-10-01T02:49:21.497Z,281.97
2022-10-01T02:50:21.895Z,279.81
2022-10-01T02:51:21.467Z,280.29
2022-10-01T02:52:21.457Z,280.76
2022-10-01T02:53:21.467Z,282.46
2022-10-01T02:54:21.432Z,281.73
2022-10-01T02:55:21.441Z,279.09
2022-10-01T02:56:21.635Z,280.29
2022-10-01T02:57:21.415Z,280.76
2022-10-01T02:58:21.399Z,280.05
2022-10-01T02:59:21.424Z,281.01
2022-10-01T03:00:21.500Z,281.73
2022-10-01T03:01:21.409Z,281.25
2022-10-01T03:02:21.619Z,283.68
2022-10-01T03:03:21.360Z,282.70
2022-10-01T03:04:21.338Z,283.92
2022-10-01T03:05:21.314Z,283.92
2022-10-01T03:06:21.329Z,284.42
2022-10-01T03:07:21.297Z,283.92
2022-10-01T03:08:21.513Z,283.19
2022-10-01T03:09:21.291Z,282.46
2022-10-01T03:10:21.272Z,285.40
2022-10-01T03:11:21.260Z,283.92
2022-10-01T03:12:21.244Z,284.42
2022-10-01T03:13:21.236Z,285.65
2022-10-01T03:14:21.409Z,282.46
2022-10-01T03:15:21.397Z,281.01
2022-10-01T03:16:21.276Z,279.09
2022-10-01T03:17:21.203Z,278.86
2022-10-01T03:18:21.189Z,279.09
2022-10-01T03:19:21.182Z,279.33
2022-10-01T03:20:21.163Z,279.09
2022-10-01T03:21:21.339Z,278.38
2022-10-01T03:22:21.200Z,278.86
2022-10-01T03:23:21.130Z,277.91
2022-10-01T03:24:21.122Z,274.42
2022-10-01T03:25:21.107Z,274.65
2022-10-01T03:26:21.098Z,274.65
2022-10-01T03:27:21.268Z,274.20
2022-10-01T03:28:21.267Z,271.02
2022-10-01T03:29:21.097Z,271.70
2022-10-01T03:30:21.056Z,270.35
2022-10-01T03:31:21.136Z,270.35
2022-10-01T03:32:21.210Z,267.05
2022-10-01T03:33:21.030Z,267.27
2022-10-01T03:34:21.017Z,265.97
2022-10-01T03:35:21.032Z,266.19
2022-10-01T03:36:20.995Z,262.15
2022-10-01T03:37:20.979Z,262.15
2022-10-01T03:38:21.210Z,260.27
2022-10-01T03:39:20.965Z,261.31
2022-10-01T03:40:20.961Z,260.48
2022-10-01T03:41:20.939Z,260.07
2022-10-01T03:42:20.964Z,256.81
2022-10-01T03:43:20.929Z,258.02
2022-10-01T03:44:21.129Z,257.01
2022-10-01T03:45:20.894Z,258.23
2022-10-01T03:46:20.869Z,256.41
2022-10-01T03:47:20.889Z,258.23
2022-10-01T03:48:20.859Z,258.84
2022-10-01T03:49:20.904Z,258.84
2022-10-01T03:50:21.009Z,259.66
2022-10-01T03:51:20.822Z,262.15
2022-10-01T03:52:20.816Z,262.57
2022-10-01T03:53:20.797Z,261.31
2022-10-01T03:54:20.789Z,262.57
2022-10-01T03:55:20.774Z,264.47
2022-10-01T03:56:20.926Z,265.97
2022-10-01T03:57:20.757Z,266.40
2022-10-01T03:58:20.746Z,268.14
2022-10-01T03:59:20.739Z,265.54
2022-10-01T04:00:20.741Z,267.71
2022-10-01T04:01:20.813Z,266.19
2022-10-01T04:02:21.238Z,268.58
2022-10-01T04:03:20.699Z,267.93
2022-10-01T04:04:20.694Z,268.14
2022-10-01T04:05:20.717Z,266.19
2022-10-01T04:06:20.668Z,265.97
2022-10-01T04:07:20.674Z,264.68
2022-10-01T04:08:24.192Z,264.26
2022-10-01T04:09:20.642Z,264.47
2022-10-01T04:10:20.610Z,261.73
2022-10-01T04:11:20.612Z,261.94
2022-10-01T04:12:20.608Z,260.27
2022-10-01T04:13:20.600Z,259.86
2022-10-01T04:14:21.648Z,258.84
2022-10-01T04:15:20.602Z,258.43
2022-10-01T04:16:20.729Z,257.62
2022-10-01T04:17:20.557Z,257.62
2022-10-01T04:18:20.542Z,254.62
2022-10-01T04:19:20.567Z,256.01
2022-10-01T04:20:20.706Z,253.63
2022-10-01T04:21:20.499Z,251.69
2022-10-01T04:22:20.504Z,254.42
2022-10-01T04:23:20.469Z,250.73
2022-10-01T04:24:20.463Z,250.92
2022-10-01T04:25:20.452Z,251.30
2022-10-01T04:26:20.711Z,249.39
2022-10-01T04:27:20.451Z,249.20
2022-10-01T04:28:20.488Z,248.26
2022-10-01T04:29:20.418Z,246.77
2022-10-01T04:30:20.397Z,246.58
2022-10-01T04:31:20.495Z,245.29
2022-10-01T04:32:20.643Z,246.21
2022-10-01T04:33:20.370Z,245.11
2022-10-01T04:34:20.366Z,244.38
2022-10-01T04:35:20.347Z,243.47
2022-10-01T04:36:20.339Z,243.11
2022-10-01T04:37:20.331Z,243.11
2022-10-01T04:38:20.472Z,242.39
2022-10-01T04:39:20.305Z,240.44
2022-10-01T04:40:20.289Z,241.68
2022-10-01T04:41:20.278Z,240.79
2022-10-01T04:42:20.277Z,240.44
2022-10-01T04:43:20.283Z,241.32
2022-10-01T04:44:20.408Z,240.79
2022-10-01T04:45:20.250Z,240.09
2022-10-01T04:46:20.273Z,241.32
2022-10-01T04:47:20.230Z,237.82
2022-10-01T04:48:20.218Z,238.52
2022-10-01T04:49:20.237Z,238.00
2022-10-01T04:50:20.436Z,237.65
2022-10-01T04:51:20.188Z,235.44
2022-10-01T04:52:20.167Z,236.11
2022-10-01T04:53:20.200Z,234.76
2022-10-01T04:54:20.147Z,232.93
2022-10-01T04:55:20.135Z,233.59
2022-10-01T04:56:20.275Z,230.31
2022-10-01T04:57:20.106Z,231.29
2022-10-01T04:58:20.112Z,229.51
2022-10-01T04:59:20.088Z,228.07
2022-10-01T05:00:20.103Z,227.91
2022-10-01T05:01:20.093Z,227.28
2022-10-01T05:02:20.279Z,226.34
2022-10-01T05:03:20.060Z,224.79
2022-10-01T05:04:20.040Z,226.03
2022-10-01T05:05:20.026Z,223.87
2022-10-01T05:06:20.032Z,224.94
2022-10-01T05:07:20.027Z,223.72
2022-10-01T05:08:20.175Z,223.72
2022-10-01T05:09:19.976Z,222.65
2022-10-01T05:10:19.965Z,223.41
2022-10-01T05:11:20.001Z,221.01
2022-10-01T05:12:24.334Z,224.02
2022-10-01T05:13:19.938Z,223.87
2022-10-01T05:14:20.075Z,224.18
2022-10-01T05:15:19.916Z,224.48
2022-10-01T05:16:20.022Z,224.18
2022-10-01T05:17:19.885Z,226.65
2022-10-01T05:18:20.169Z,225.10
2022-10-01T05:19:19.884Z,226.97
2022-10-01T05:20:19.870Z,228.87
2022-10-01T05:21:19.879Z,230.31
2022-10-01T05:22:19.857Z,230.96
2022-10-01T05:23:19.836Z,233.09
2022-10-01T05:24:20.055Z,234.59
2022-10-01T05:25:19.859Z,236.11
2022-10-01T05:26:19.819Z,237.48
2022-10-01T05:27:19.786Z,236.45
2022-10-01T05:28:22.408Z,239.21
2022-10-01T05:29:19.782Z,238.86
2022-10-01T05:30:20.157Z,239.91
2022-10-01T05:31:19.834Z,237.82
2022-10-01T05:32:19.785Z,239.39
2022-10-01T05:33:19.758Z,239.04
2022-10-01T05:34:19.728Z,239.56
2022-10-01T05:35:19.709Z,240.09
2022-10-01T05:36:19.857Z,238.52
2022-10-01T05:37:19.686Z,238.34
2022-10-01T05:38:19.685Z,237.48
2022-10-01T05:39:19.659Z,235.94
2022-10-01T05:40:19.652Z,236.11
2022-10-01T05:41:19.644Z,235.60
2022-10-01T05:42:19.837Z,235.44
2022-10-01T05:43:19.624Z,235.44
2022-10-01T05:44:19.588Z,234.43
2022-10-01T05:45:19.625Z,232.76
2022-10-01T05:46:19.572Z,233.76
2022-10-01T05:47:19.563Z,232.43
2022-10-01T05:48:19.965Z,230.80
2022-10-01T05:49:19.587Z,232.27
2022-10-01T05:50:19.546Z,231.45
2022-10-01T05:51:19.523Z,231.78
2022-10-01T05:52:19.526Z,231.29
2022-10-01T05:53:19.504Z,230.80
2022-10-01T05:54:20.423Z,229.83
2022-10-01T05:55:19.480Z,229.51
2022-10-01T05:56:19.482Z,227.76
2022-10-01T05:57:19.485Z,228.07
2022-10-01T05:58:19.447Z,230.15
2022-10-01T05:59:19.454Z,229.19
2022-10-01T06:00:20.162Z,229.51
2022-10-01T06:01:19.452Z,229.83
2022-10-01T06:02:19.510Z,232.43
2022-10-01T06:03:19.406Z,228.23
2022-10-01T06:04:19.393Z,228.55
2022-10-01T06:05:19.383Z,231.61
2022-10-01T06:06:19.561Z,230.15
2022-10-01T06:07:19.353Z,231.12
2022-10-01T06:08:19.354Z,230.48
2022-10-01T06:09:19.357Z,230.48
2022-10-01T06:10:19.315Z,231.78
2022-10-01T06:11:19.333Z,231.12
2022-10-01T06:12:20.060Z,230.96
2022-10-01T06:13:19.292Z,231.45
2022-10-01T06:14:19.285Z,229.99
2022-10-01T06:15:19.294Z,230.15
2022-10-01T06:16:19.316Z,230.15
2022-10-01T06:17:19.256Z,229.83
2022-10-01T06:18:19.491Z,231.45
2022-10-01T06:19:19.231Z,232.76
2022-10-01T06:20:19.211Z,233.93
2022-10-01T06:21:19.213Z,232.76
2022-10-01T06:22:19.200Z,233.26
2022-10-01T06:23:19.183Z,233.26
2022-10-01T06:24:19.405Z,234.76
2022-10-01T06:25:19.170Z,235.27
2022-10-01T06:26:19.151Z,234.43
2022-10-01T06:27:19.133Z,235.10
2022-10-01T06:28:19.219Z,235.10
2022-10-01T06:29:19.119Z,233.09
2022-10-01T06:30:19.511Z,235.60
2022-10-01T06:31:19.159Z,234.76
2022-10-01T06:32:19.083Z,234.09
2022-10-01T06:33:19.101Z,235.10
2022-10-01T06:34:19.084Z,235.77
2022-10-01T06:35:19.069Z,237.65
2022-10-01T06:36:19.195Z,236.62
2022-10-01T06:37:19.054Z,236.79
2022-10-01T06:38:19.027Z,237.14
2022-10-01T06:39:19.025Z,236.62
2022-10-01T06:40:19.040Z,238.00
2022-10-01T06:41:19.363Z,239.91
2022-10-01T06:42:18.977Z,237.82
2022-10-01T06:43:18.962Z,238.86
2022-10-01T06:44:18.952Z,239.74
2022-10-01T06:45:18.935Z,238.17
2022-10-01T06:46:18.975Z,239.21
2022-10-01T06:47:19.097Z,240.62
2022-10-01T06:48:18.901Z,241.32
2022-10-01T06:49:18.888Z,241.68
2022-10-01T06:50:18.892Z,241.68
2022-10-01T06:51:18.872Z,242.04
2022-10-01T06:52:18.863Z,241.32
2022-10-01T06:53:19.090Z,243.47
2022-10-01T06:54:18.837Z,244.01
2022-10-01T06:55:18.830Z,244.20
2022-10-01T06:56:18.830Z,245.66
2022-10-01T06:57:18.811Z,245.29
2022-10-01T06:58:18.791Z,245.66
2022-10-01T06:59:18.960Z,245.29
2022-10-01T07:00:18.802Z,245.66
2022-10-01T07:01:18.908Z,245.29
2022-10-01T07:02:18.843Z,247.33
2022-10-01T07:03:18.757Z,246.58
2022-10-01T07:04:18.739Z,247.89
2022-10-01T07:05:18.750Z,246.77
2022-10-01T07:06:18.706Z,248.83
2022-10-01T07:07:18.700Z,246.95
2022-10-01T07:08:18.688Z,247.70
2022-10-01T07:09:18.670Z,246.21
2022-10-01T07:10:18.665Z,246.40
2022-10-01T07:11:18.824Z,246.58
2022-10-01T07:12:18.669Z,249.39
2022-10-01T07:13:18.634Z,247.89
2022-10-01T07:14:18.619Z,247.89
2022-10-01T07:15:18.619Z,247.51
2022-10-01T07:16:18.626Z,246.40
2022-10-01T07:17:18.772Z,246.03
2022-10-01T07:18:18.584Z,247.14
2022-10-01T07:19:18.578Z,246.95
2022-10-01T07:20:18.554Z,246.40
2022-10-01T07:21:18.548Z,246.77
2022-10-01T07:22:18.536Z,246.21
2022-10-01T07:23:18.708Z,245.66
2022-10-01T07:24:18.508Z,246.58
2022-10-01T07:25:18.528Z,246.95
2022-10-01T07:26:18.499Z,246.40
2022-10-01T07:27:18.490Z,246.40
2022-10-01T07:28:18.823Z,246.40
2022-10-01T07:29:18.844Z,244.93
2022-10-01T07:30:18.448Z,245.48
2022-10-01T07:31:18.498Z,245.11
2022-10-01T07:32:18.437Z,246.40
2022-10-01T07:33:18.409Z,244.56
2022-10-01T07:34:18.413Z,244.93
2022-10-01T07:35:18.651Z,245.11
2022-10-01T07:36:18.399Z,246.21
2022-10-01T07:37:18.369Z,248.64
2022-10-01T07:38:18.380Z,249.39
2022-10-01T07:39:19.213Z,251.11
2022-10-01T07:40:18.348Z,251.50
2022-10-01T07:41:18.508Z,251.11
2022-10-01T07:42:18.328Z,251.69
2022-10-01T07:43:18.328Z,251.50
2022-10-01T07:44:18.298Z,250.73
2022-10-01T07:45:18.277Z,251.69
2022-10-01T07:46:18.345Z,251.30
2022-10-01T07:47:18.478Z,252.46
2022-10-01T07:48:18.259Z,253.24
2022-10-01T07:49:18.263Z,252.08
2022-10-01T07:50:18.237Z,251.50
2022-10-01T07:51:18.218Z,250.35
2022-10-01T07:52:18.270Z,248.45
2022-10-01T07:53:18.356Z,249.39
2022-10-01T07:54:18.197Z,248.07
2022-10-01T07:55:18.177Z,248.64
2022-10-01T07:56:18.179Z,246.40
2022-10-01T07:57:18.158Z,245.48
2022-10-01T07:58:18.149Z,246.58
2022-10-01T07:59:18.293Z,246.77
2022-10-01T08:00:18.121Z,244.93
2022-10-01T08:01:18.189Z,244.74
2022-10-01T08:02:18.161Z,243.83
2022-10-01T08:03:18.087Z,243.65
2022-10-01T08:04:18.079Z,244.20
2022-10-01T08:05:18.241Z,244.56
2022-10-01T08:06:20.866Z,243.47
2022-10-01T08:07:19.046Z,242.39
2022-10-01T08:08:18.039Z,241.86
2022-10-01T08:09:18.028Z,242.21
2022-10-01T08:10:18.027Z,242.93
2022-10-01T08:11:18.168Z,243.29
2022-10-01T08:12:17.998Z,242.75
2022-10-01T08:13:17.982Z,243.29
2022-10-01T08:14:17.977Z,241.68
2022-10-01T08:15:17.988Z,240.26
2022-10-01T08:16:18.007Z,240.79
2022-10-01T08:17:18.187Z,239.39
2022-10-01T08:18:17.927Z,240.26
2022-10-01T08:19:17.919Z,242.39
2022-10-01T08:20:17.909Z,243.11
2022-10-01T08:21:17.900Z,241.32
2022-10-01T08:22:17.899Z,240.97
2022-10-01T08:23:18.066Z,242.75
2022-10-01T08:24:17.882Z,241.86
2022-10-01T08:25:17.850Z,245.84
2022-10-01T08:26:17.841Z,246.95
2022-10-01T08:27:17.837Z,245.48
2022-10-01T08:28:17.867Z,246.77
2022-10-01T08:29:17.973Z,247.14
2022-10-01T08:30:17.811Z,246.95
2022-10-01T08:31:17.838Z,247.89
2022-10-01T08:32:17.795Z,247.70
2022-10-01T08:33:17.786Z,247.51
2022-10-01T08:34:17.767Z,246.21
2022-10-01T08:35:17.961Z,248.26
2022-10-01T08:36:17.737Z,248.26
2022-10-01T08:37:17.727Z,246.21
2022-10-01T08:38:17.717Z,244.93
2022-10-01T08:39:17.696Z,242.93
2022-10-01T08:40:17.711Z,241.15
2022-10-01T08:41:23.056Z,240.26
2022-10-01T08:42:17.706Z,239.91
2022-10-01T08:43:17.657Z,240.62
2022-10-01T08:44:17.664Z,240.09
2022-10-01T08:45:17.640Z,238.86
2022-10-01T08:46:27.337Z,238.17
2022-10-01T08:47:17.627Z,237.31
2022-10-01T08:48:17.618Z,236.97
2022-10-01T08:49:17.595Z,240.26
2022-10-01T08:50:17.585Z,239.39
2022-10-01T08:51:17.576Z,238.34
2022-10-01T08:52:17.716Z,238.69
2022-10-01T08:53:17.551Z,238.86
2022-10-01T08:54:17.541Z,242.93
2022-10-01T08:55:17.526Z,244.20
2022-10-01T08:56:17.527Z,244.20
2022-10-01T08:57:17.518Z,244.01
2022-10-01T08:58:17.852Z,244.01
2022-10-01T08:59:17.486Z,244.56
2022-10-01T09:00:17.485Z,245.11
2022-10-01T09:01:17.482Z,246.58
2022-10-01T09:02:17.517Z,246.03
2022-10-01T09:03:17.447Z,246.21
2022-10-01T09:04:17.711Z,250.92
2022-10-01T09:05:17.436Z,252.66
2022-10-01T09:06:17.417Z,253.83
2022-10-01T09:07:17.415Z,255.41
2022-10-01T09:08:17.414Z,257.21
2022-10-01T09:09:17.372Z,256.61
2022-10-01T09:10:17.561Z,258.63
2022-10-01T09:11:17.369Z,261.31
2022-10-01T09:12:17.374Z,260.27
2022-10-01T09:13:17.352Z,258.43
2022-10-01T09:14:17.327Z,260.27
2022-10-01T09:15:17.325Z,258.43
2022-10-01T09:16:17.539Z,258.02
2022-10-01T09:17:17.287Z,258.84
2022-10-01T09:18:17.276Z,257.62
2022-10-01T09:19:17.283Z,257.62
2022-10-01T09:20:17.285Z,256.01
2022-10-01T09:21:17.259Z,256.01
2022-10-01T09:22:17.431Z,254.42
2022-10-01T09:23:17.227Z,255.81
2022-10-01T09:24:17.254Z,253.24
2022-10-01T09:25:17.213Z,254.03
2022-10-01T09:26:17.189Z,251.88
2022-10-01T09:27:17.179Z,250.73
2022-10-01T09:28:17.411Z,250.15
2022-10-01T09:29:17.160Z,250.15
2022-10-01T09:30:17.194Z,249.39
2022-10-01T09:31:17.169Z,250.54
2022-10-01T09:32:17.125Z,250.92
2022-10-01T09:33:17.135Z,250.54
2022-10-01T09:34:17.283Z,250.15
2022-10-01T09:35:17.115Z,251.69
2022-10-01T09:36:17.251Z,250.15
2022-10-01T09:37:17.077Z,249.20
2022-10-01T09:38:17.064Z,249.77
2022-10-01T09:39:17.063Z,249.01
2022-10-01T09:40:17.126Z,247.14
2022-10-01T09:41:17.025Z,245.84
2022-10-01T09:42:17.192Z,244.01
2022-10-01T09:43:17.010Z,242.93
2022-10-01T09:44:18.901Z,240.62
2022-10-01T09:45:16.988Z,239.39
2022-10-01T09:46:17.197Z,238.34
2022-10-01T09:47:16.964Z,234.59
2022-10-01T09:48:17.144Z,233.09
2022-10-01T09:49:16.958Z,231.61
2022-10-01T09:50:16.941Z,231.61
2022-10-01T09:51:16.927Z,230.15
2022-10-01T09:52:16.941Z,230.15
2022-10-01T09:53:16.911Z,229.51
2022-10-01T09:54:17.314Z,231.12
2022-10-01T09:55:16.885Z,228.71
2022-10-01T09:56:16.878Z,226.97
2022-10-01T09:57:16.890Z,226.81
2022-10-01T09:58:16.844Z,227.91
2022-10-01T09:59:16.833Z,225.72
2022-10-01T10:00:17.007Z,227.28
2022-10-01T10:01:16.828Z,226.65
2022-10-01T10:02:16.930Z,224.33
2022-10-01T10:03:16.990Z,223.87
2022-10-01T10:04:20.040Z,224.94
2022-10-01T10:05:16.766Z,224.33
2022-10-01T10:06:16.933Z,222.50
2022-10-01T10:07:16.751Z,224.33
2022-10-01T10:08:16.735Z,222.65
2022-10-01T10:09:16.729Z,223.41
2022-10-01T10:10:16.737Z,222.05
2022-10-01T10:11:16.715Z,223.41
2022-10-01T10:12:16.923Z,222.20
2022-10-01T10:13:16.703Z,221.45
2022-10-01T10:14:16.682Z,222.20
2022-10-01T10:15:16.674Z,220.26
2022-10-01T10:16:16.824Z,222.81
2022-10-01T10:17:16.660Z,220.41
2022-10-01T10:18:21.524Z,221.75
2022-10-01T10:19:17.625Z,222.65
2022-10-01T10:20:16.622Z,221.75
2022-10-01T10:21:16.598Z,222.65
2022-10-01T10:22:16.619Z,219.97
2022-10-01T10:23:16.581Z,221.01
2022-10-01T10:24:16.738Z,219.97
2022-10-01T10:25:16.570Z,219.23
2022-10-01T10:26:16.562Z,219.09
2022-10-01T10:27:16.555Z,218.36
2022-10-01T10:28:16.547Z,219.09
2022-10-01T10:29:16.516Z,216.77
2022-10-01T10:30:16.686Z,218.50
2022-10-01T10:31:16.573Z,218.36
2022-10-01T10:32:16.474Z,218.94
2022-10-01T10:33:16.472Z,219.09
2022-10-01T10:34:16.463Z,217.35
2022-10-01T10:35:16.454Z,217.20
2022-10-01T10:36:16.786Z,217.49
2022-10-01T10:37:16.444Z,218.21
2022-10-01T10:38:16.415Z,218.07
2022-10-01T10:39:16.415Z,217.78
2022-10-01T10:40:16.388Z,217.49
2022-10-01T10:41:16.394Z,218.21
2022-10-01T10:42:16.824Z,218.21
2022-10-01T10:43:16.362Z,216.91
2022-10-01T10:44:16.353Z,215.63
2022-10-01T10:45:16.343Z,215.63
2022-10-01T10:46:16.366Z,215.35
2022-10-01T10:47:16.318Z,215.07
2022-10-01T10:48:16.488Z,213.80
2022-10-01T10:49:16.294Z,215.21
2022-10-01T10:50:16.298Z,213.94
2022-10-01T10:51:16.282Z,211.74
2022-10-01T10:52:16.273Z,209.97
2022-10-01T10:53:16.264Z,209.84
2022-10-01T10:54:16.635Z,209.30
2022-10-01T10:55:16.235Z,207.58
2022-10-01T10:56:16.225Z,206.93
2022-10-01T10:57:16.205Z,206.02
2022-10-01T10:58:16.203Z,206.93
2022-10-01T10:59:16.192Z,205.63
2022-10-01T11:00:16.344Z,204.99
2022-10-01T11:01:16.284Z,205.12
2022-10-01T11:02:16.194Z,202.83
2022-10-01T11:03:16.154Z,202.21
2022-10-01T11:04:16.136Z,200.60
2022-10-01T11:05:16.151Z,199.99
2022-10-01T11:06:16.289Z,199.87
2022-10-01T11:07:16.120Z,198.18
2022-10-01T11:08:17.885Z,197.11
2022-10-01T11:09:16.074Z,196.52
2022-10-01T11:10:16.082Z,195.81
2022-10-01T11:11:16.118Z,193.62
2022-10-01T11:12:16.377Z,194.31
2022-10-01T11:13:16.033Z,195.58
2022-10-01T11:14:18.087Z,193.73
2022-10-01T11:15:17.028Z,192.93
2022-10-01T11:16:16.036Z,193.73
2022-10-01T11:17:15.997Z,192.48
2022-10-01T11:18:16.161Z,191.58
2022-10-01T11:19:15.973Z,191.47
2022-10-01T11:20:20.508Z,191.36
2022-10-01T11:21:16.954Z,191.25
2022-10-01T11:22:15.954Z,190.03
2022-10-01T11:23:15.939Z,189.04
2022-10-01T11:24:16.137Z,190.69
2022-10-01T11:25:15.904Z,188.72
2022-10-01T11:26:15.892Z,188.61
2022-10-01T11:27:15.914Z,188.61
2022-10-01T11:28:15.937Z,188.72
2022-10-01T11:29:15.872Z,189.37
2022-10-01T11:30:16.007Z,190.47
2022-10-01T11:31:15.888Z,189.48
2022-10-01T11:32:15.841Z,190.14
2022-10-01T11:33:15.820Z,189.04
2022-10-01T11:34:15.825Z,187.85
2022-10-01T11:35:15.802Z,187.32
2022-10-01T11:36:16.135Z,187.53
2022-10-01T11:37:15.780Z,186.89
2022-10-01T11:38:15.771Z,186.78
2022-10-01T11:39:15.758Z,188.72
2022-10-01T11:40:15.758Z,187.64
2022-10-01T11:41:15.739Z,189.37
2022-10-01T11:42:15.892Z,187.96
2022-10-01T11:43:15.733Z,187.64
2022-10-01T11:44:15.734Z,189.37
2022-10-01T11:45:15.693Z,188.39
2022-10-01T11:46:15.722Z,189.48
2022-10-01T11:47:15.671Z,188.50
2022-10-01T11:48:16.078Z,188.94
2022-10-01T11:49:15.652Z,190.69
2022-10-01T11:50:15.663Z,189.81
2022-10-01T11:51:15.625Z,190.03
2022-10-01T11:52:15.611Z,190.69
2022-10-01T11:53:15.638Z,191.36
2022-10-01T11:54:15.772Z,190.91
2022-10-01T11:55:15.587Z,189.15
2022-10-01T11:56:15.573Z,189.81
2022-10-01T11:57:15.565Z,189.81
2022-10-01T11:58:15.564Z,189.04
2022-10-01T11:59:15.561Z,188.83
2022-10-01T12:00:15.678Z,187.96
2022-10-01T12:01:15.521Z,188.50
2022-10-01T12:02:15.617Z,187.75
2022-10-01T12:03:15.500Z,189.59
2022-10-01T12:04:15.487Z,189.37
2022-10-01T12:05:15.534Z,189.04
2022-10-01T12:06:15.642Z,188.72
2022-10-01T12:07:15.467Z,190.14
2022-10-01T12:08:15.441Z,191.25
2022-10-01T12:09:15.446Z,192.37
2022-10-01T12:10:15.431Z,192.82
2022-10-01T12:11:15.411Z,193.50
2022-10-01T12:12:15.641Z,193.28
2022-10-01T12:13:15.398Z,194.08
2022-10-01T12:14:15.373Z,194.77
2022-10-01T12:15:15.382Z,195.81
2022-10-01T12:16:15.414Z,196.28
2022-10-01T12:17:15.373Z,197.35
2022-10-01T12:18:15.518Z,198.18
2022-10-01T12:19:15.348Z,199.02
2022-10-01T12:20:15.314Z,201.59
2022-10-01T12:21:15.301Z,201.59
2022-10-01T12:22:15.306Z,202.09
2022-10-01T12:23:15.298Z,202.09
2022-10-01T12:24:15.442Z,203.72
2022-10-01T12:25:15.265Z,203.72
2022-10-01T12:26:15.252Z,204.86
2022-10-01T12:27:15.244Z,206.54
2022-10-01T12:28:15.299Z,207.85
2022-10-01T12:29:15.233Z,207.45